sensor_id;sensor_type;location;lat;lon;timestamp;P1;durP1;ratioP1;P2;durP2;ratioP2
65477;SDS011;53678;39.642;22.430;2024-03-06T00:01:53;30.10;;;16.92;;
65477;SDS011;53678;39.642;22.430;2024-03-06T00:04:18;39.38;;;18.30;;
65477;SDS011;53678;39.642;22.430;2024-03-06T00:06:44;22.20;;;12.85;;
65477;SDS011;53678;39.642;22.430;2024-03-06T00:09:10;22.95;;;13.95;;
65477;SDS011;53678;39.642;22.430;2024-03-06T00:11:35;24.02;;;13.35;;
65477;SDS011;53678;39.642;22.430;2024-03-06T00:14:04;22.85;;;13.75;;
65477;SDS011;53678;39.642;22.430;2024-03-06T00:16:31;18.77;;;12.20;;
65477;SDS011;53678;39.642;22.430;2024-03-06T00:18:57;24.10;;;14.52;;
65477;SDS011;53678;39.642;22.430;2024-03-06T00:21:23;23.08;;;14.75;;
65477;SDS011;53678;39.642;22.430;2024-03-06T00:23:49;21.77;;;13.95;;
65477;SDS011;53678;39.642;22.430;2024-03-06T00:26:15;39.50;;;19.13;;
65477;SDS011;53678;39.642;22.430;2024-03-06T00:28:41;33.63;;;16.67;;
65477;SDS011;53678;39.642;22.430;2024-03-06T00:31:08;33.72;;;16.33;;
65477;SDS011;53678;39.642;22.430;2024-03-06T00:33:35;23.15;;;13.77;;
65477;SDS011;53678;39.642;22.430;2024-03-06T00:36:00;21.75;;;13.88;;
65477;SDS011;53678;39.642;22.430;2024-03-06T00:38:26;25.38;;;14.27;;
65477;SDS011;53678;39.642;22.430;2024-03-06T00:40:53;22.77;;;13.25;;
65477;SDS011;53678;39.642;22.430;2024-03-06T00:43:19;23.25;;;13.98;;
65477;SDS011;53678;39.642;22.430;2024-03-06T00:45:46;22.20;;;13.52;;
65477;SDS011;53678;39.642;22.430;2024-03-06T00:48:12;23.10;;;14.55;;
65477;SDS011;53678;39.642;22.430;2024-03-06T00:50:37;25.23;;;14.52;;
65477;SDS011;53678;39.642;22.430;2024-03-06T00:53:03;26.38;;;16.02;;
65477;SDS011;53678;39.642;22.430;2024-03-06T00:55:29;27.27;;;15.95;;
65477;SDS011;53678;39.642;22.430;2024-03-06T00:57:55;25.77;;;15.20;;
65477;SDS011;53678;39.642;22.430;2024-03-06T01:00:22;32.10;;;16.90;;
65477;SDS011;53678;39.642;22.430;2024-03-06T01:02:47;36.42;;;16.02;;
65477;SDS011;53678;39.642;22.430;2024-03-06T01:05:13;30.30;;;15.98;;
65477;SDS011;53678;39.642;22.430;2024-03-06T01:07:39;23.85;;;14.07;;
65477;SDS011;53678;39.642;22.430;2024-03-06T01:10:05;30.75;;;15.45;;
65477;SDS011;53678;39.642;22.430;2024-03-06T01:12:32;24.10;;;13.48;;
65477;SDS011;53678;39.642;22.430;2024-03-06T01:14:58;19.98;;;12.63;;
65477;SDS011;53678;39.642;22.430;2024-03-06T01:17:24;25.42;;;14.75;;
65477;SDS011;53678;39.642;22.430;2024-03-06T01:19:50;22.92;;;13.48;;
65477;SDS011;53678;39.642;22.430;2024-03-06T01:22:16;28.98;;;16.33;;
65477;SDS011;53678;39.642;22.430;2024-03-06T01:24:42;33.95;;;18.77;;
65477;SDS011;53678;39.642;22.430;2024-03-06T01:27:07;27.58;;;15.38;;
65477;SDS011;53678;39.642;22.430;2024-03-06T01:29:33;23.85;;;14.82;;
65477;SDS011;53678;39.642;22.430;2024-03-06T01:31:59;21.20;;;13.55;;
65477;SDS011;53678;39.642;22.430;2024-03-06T01:34:25;18.98;;;11.57;;
65477;SDS011;53678;39.642;22.430;2024-03-06T01:36:51;22.80;;;14.02;;
65477;SDS011;53678;39.642;22.430;2024-03-06T01:39:18;20.80;;;13.65;;
65477;SDS011;53678;39.642;22.430;2024-03-06T01:41:47;16.88;;;11.55;;
65477;SDS011;53678;39.642;22.430;2024-03-06T01:44:14;15.10;;;10.80;;
65477;SDS011;53678;39.642;22.430;2024-03-06T01:46:40;21.80;;;11.57;;
65477;SDS011;53678;39.642;22.430;2024-03-06T01:49:06;17.17;;;11.85;;
65477;SDS011;53678;39.642;22.430;2024-03-06T01:51:34;20.90;;;12.68;;
65477;SDS011;53678;39.642;22.430;2024-03-06T01:54:00;21.88;;;13.02;;
65477;SDS011;53678;39.642;22.430;2024-03-06T01:56:35;21.58;;;12.73;;
65477;SDS011;53678;39.642;22.430;2024-03-06T01:59:03;25.83;;;12.77;;
65477;SDS011;53678;39.642;22.430;2024-03-06T02:01:29;19.75;;;11.02;;
65477;SDS011;53678;39.642;22.430;2024-03-06T02:03:57;16.83;;;9.63;;
65477;SDS011;53678;39.642;22.430;2024-03-06T02:06:24;15.68;;;9.90;;
65477;SDS011;53678;39.642;22.430;2024-03-06T02:08:51;15.05;;;9.30;;
65477;SDS011;53678;39.642;22.430;2024-03-06T02:11:17;13.85;;;9.00;;
65477;SDS011;53678;39.642;22.430;2024-03-06T02:13:43;14.88;;;8.65;;
65477;SDS011;53678;39.642;22.430;2024-03-06T02:16:11;14.65;;;9.35;;
65477;SDS011;53678;39.642;22.430;2024-03-06T02:18:37;12.02;;;8.68;;
65477;SDS011;53678;39.642;22.430;2024-03-06T02:21:16;12.57;;;7.90;;
65477;SDS011;53678;39.642;22.430;2024-03-06T02:23:42;13.15;;;8.82;;
65477;SDS011;53678;39.642;22.430;2024-03-06T02:26:08;14.70;;;9.30;;
65477;SDS011;53678;39.642;22.430;2024-03-06T02:28:34;11.30;;;8.02;;
65477;SDS011;53678;39.642;22.430;2024-03-06T02:31:00;13.18;;;8.15;;
65477;SDS011;53678;39.642;22.430;2024-03-06T02:33:27;11.90;;;7.60;;
65477;SDS011;53678;39.642;22.430;2024-03-06T02:35:52;12.57;;;7.25;;
65477;SDS011;53678;39.642;22.430;2024-03-06T02:38:18;10.63;;;6.63;;
65477;SDS011;53678;39.642;22.430;2024-03-06T02:40:44;13.35;;;7.15;;
65477;SDS011;53678;39.642;22.430;2024-03-06T02:43:10;9.15;;;6.70;;
65477;SDS011;53678;39.642;22.430;2024-03-06T02:45:36;10.98;;;6.97;;
65477;SDS011;53678;39.642;22.430;2024-03-06T02:48:01;10.32;;;6.82;;
65477;SDS011;53678;39.642;22.430;2024-03-06T02:50:27;9.25;;;5.95;;
65477;SDS011;53678;39.642;22.430;2024-03-06T02:52:53;8.57;;;5.57;;
65477;SDS011;53678;39.642;22.430;2024-03-06T02:55:22;9.18;;;5.50;;
65477;SDS011;53678;39.642;22.430;2024-03-06T02:57:50;9.13;;;6.20;;
65477;SDS011;53678;39.642;22.430;2024-03-06T03:00:15;15.80;;;8.10;;
65477;SDS011;53678;39.642;22.430;2024-03-06T03:02:41;12.45;;;7.38;;
65477;SDS011;53678;39.642;22.430;2024-03-06T03:05:08;11.98;;;7.25;;
65477;SDS011;53678;39.642;22.430;2024-03-06T03:07:34;12.75;;;7.03;;
65477;SDS011;53678;39.642;22.430;2024-03-06T03:10:00;11.80;;;7.95;;
65477;SDS011;53678;39.642;22.430;2024-03-06T03:12:27;12.63;;;8.80;;
65477;SDS011;53678;39.642;22.430;2024-03-06T03:14:52;13.57;;;7.43;;
65477;SDS011;53678;39.642;22.430;2024-03-06T03:17:18;17.65;;;8.35;;
65477;SDS011;53678;39.642;22.430;2024-03-06T03:19:44;16.25;;;9.05;;
65477;SDS011;53678;39.642;22.430;2024-03-06T03:22:10;22.25;;;9.50;;
65477;SDS011;53678;39.642;22.430;2024-03-06T03:24:36;11.75;;;7.53;;
65477;SDS011;53678;39.642;22.430;2024-03-06T03:27:02;16.05;;;7.97;;
65477;SDS011;53678;39.642;22.430;2024-03-06T03:29:29;24.35;;;9.25;;
65477;SDS011;53678;39.642;22.430;2024-03-06T03:31:55;12.32;;;7.53;;
65477;SDS011;53678;39.642;22.430;2024-03-06T03:34:22;19.95;;;10.00;;
65477;SDS011;53678;39.642;22.430;2024-03-06T03:36:48;19.90;;;11.32;;
65477;SDS011;53678;39.642;22.430;2024-03-06T03:39:14;20.33;;;10.75;;
65477;SDS011;53678;39.642;22.430;2024-03-06T03:41:46;20.67;;;10.95;;
65477;SDS011;53678;39.642;22.430;2024-03-06T03:44:13;19.00;;;10.48;;
65477;SDS011;53678;39.642;22.430;2024-03-06T03:46:45;22.33;;;11.18;;
65477;SDS011;53678;39.642;22.430;2024-03-06T03:49:11;17.52;;;10.50;;
65477;SDS011;53678;39.642;22.430;2024-03-06T03:51:37;27.70;;;10.52;;
65477;SDS011;53678;39.642;22.430;2024-03-06T03:54:04;17.98;;;9.30;;
65477;SDS011;53678;39.642;22.430;2024-03-06T03:56:31;16.20;;;8.90;;
65477;SDS011;53678;39.642;22.430;2024-03-06T03:58:57;20.85;;;9.23;;
65477;SDS011;53678;39.642;22.430;2024-03-06T04:01:24;17.60;;;9.48;;
65477;SDS011;53678;39.642;22.430;2024-03-06T04:03:51;16.95;;;8.10;;
65477;SDS011;53678;39.642;22.430;2024-03-06T04:06:16;15.63;;;8.77;;
65477;SDS011;53678;39.642;22.430;2024-03-06T04:08:42;17.00;;;9.38;;
65477;SDS011;53678;39.642;22.430;2024-03-06T04:11:08;14.93;;;9.00;;
65477;SDS011;53678;39.642;22.430;2024-03-06T04:13:37;18.23;;;9.00;;
65477;SDS011;53678;39.642;22.430;2024-03-06T04:16:04;16.45;;;9.10;;
65477;SDS011;53678;39.642;22.430;2024-03-06T04:18:31;39.55;;;11.15;;
65477;SDS011;53678;39.642;22.430;2024-03-06T04:21:04;46.83;;;16.77;;
65477;SDS011;53678;39.642;22.430;2024-03-06T04:23:30;73.82;;;20.83;;
65477;SDS011;53678;39.642;22.430;2024-03-06T04:25:56;39.70;;;14.48;;
65477;SDS011;53678;39.642;22.430;2024-03-06T04:28:22;49.40;;;13.68;;
65477;SDS011;53678;39.642;22.430;2024-03-06T04:30:49;24.83;;;10.35;;
65477;SDS011;53678;39.642;22.430;2024-03-06T04:33:15;13.45;;;8.35;;
65477;SDS011;53678;39.642;22.430;2024-03-06T04:35:42;29.50;;;10.10;;
65477;SDS011;53678;39.642;22.430;2024-03-06T04:38:08;39.05;;;12.40;;
65477;SDS011;53678;39.642;22.430;2024-03-06T04:40:34;45.03;;;16.05;;
65477;SDS011;53678;39.642;22.430;2024-03-06T04:43:00;31.00;;;10.82;;
65477;SDS011;53678;39.642;22.430;2024-03-06T04:45:26;25.85;;;10.48;;
65477;SDS011;53678;39.642;22.430;2024-03-06T04:47:52;36.65;;;13.07;;
65477;SDS011;53678;39.642;22.430;2024-03-06T04:50:19;40.75;;;14.73;;
65477;SDS011;53678;39.642;22.430;2024-03-06T04:52:45;55.53;;;15.60;;
65477;SDS011;53678;39.642;22.430;2024-03-06T04:55:10;28.55;;;9.63;;
65477;SDS011;53678;39.642;22.430;2024-03-06T04:57:38;23.60;;;9.68;;
65477;SDS011;53678;39.642;22.430;2024-03-06T05:00:06;18.52;;;10.15;;
65477;SDS011;53678;39.642;22.430;2024-03-06T05:02:35;22.83;;;11.65;;
65477;SDS011;53678;39.642;22.430;2024-03-06T05:05:09;23.80;;;10.40;;
65477;SDS011;53678;39.642;22.430;2024-03-06T05:07:35;21.60;;;10.50;;
65477;SDS011;53678;39.642;22.430;2024-03-06T05:10:01;16.60;;;8.98;;
65477;SDS011;53678;39.642;22.430;2024-03-06T05:12:27;19.98;;;10.93;;
65477;SDS011;53678;39.642;22.430;2024-03-06T05:14:53;27.95;;;11.68;;
65477;SDS011;53678;39.642;22.430;2024-03-06T05:17:20;30.55;;;11.15;;
65477;SDS011;53678;39.642;22.430;2024-03-06T05:19:47;39.97;;;13.70;;
65477;SDS011;53678;39.642;22.430;2024-03-06T05:22:15;49.25;;;13.75;;
65477;SDS011;53678;39.642;22.430;2024-03-06T05:24:44;24.00;;;9.95;;
65477;SDS011;53678;39.642;22.430;2024-03-06T05:27:10;17.08;;;8.27;;
65477;SDS011;53678;39.642;22.430;2024-03-06T05:29:42;18.40;;;8.60;;
65477;SDS011;53678;39.642;22.430;2024-03-06T05:32:09;34.17;;;9.57;;
65477;SDS011;53678;39.642;22.430;2024-03-06T05:34:34;17.92;;;9.25;;
65477;SDS011;53678;39.642;22.430;2024-03-06T05:37:01;31.05;;;9.30;;
65477;SDS011;53678;39.642;22.430;2024-03-06T05:39:29;31.13;;;8.93;;
65477;SDS011;53678;39.642;22.430;2024-03-06T05:42:00;46.47;;;9.85;;
65477;SDS011;53678;39.642;22.430;2024-03-06T05:44:29;28.45;;;11.00;;
65477;SDS011;53678;39.642;22.430;2024-03-06T05:46:56;21.27;;;10.07;;
65477;SDS011;53678;39.642;22.430;2024-03-06T05:49:30;22.98;;;8.48;;
65477;SDS011;53678;39.642;22.430;2024-03-06T05:51:55;15.85;;;6.78;;
65477;SDS011;53678;39.642;22.430;2024-03-06T05:54:21;18.67;;;8.25;;
65477;SDS011;53678;39.642;22.430;2024-03-06T05:56:48;15.85;;;7.50;;
65477;SDS011;53678;39.642;22.430;2024-03-06T05:59:19;13.75;;;8.15;;
65477;SDS011;53678;39.642;22.430;2024-03-06T06:01:45;21.58;;;7.53;;
65477;SDS011;53678;39.642;22.430;2024-03-06T06:04:12;13.55;;;6.47;;
65477;SDS011;53678;39.642;22.430;2024-03-06T06:06:39;13.13;;;6.72;;
65477;SDS011;53678;39.642;22.430;2024-03-06T06:09:05;13.75;;;6.50;;
65477;SDS011;53678;39.642;22.430;2024-03-06T06:11:38;29.52;;;8.18;;
65477;SDS011;53678;39.642;22.430;2024-03-06T06:14:05;23.42;;;7.88;;
65477;SDS011;53678;39.642;22.430;2024-03-06T06:16:34;20.60;;;6.50;;
65477;SDS011;53678;39.642;22.430;2024-03-06T06:19:02;21.20;;;6.50;;
65477;SDS011;53678;39.642;22.430;2024-03-06T06:21:28;8.43;;;5.22;;
65477;SDS011;53678;39.642;22.430;2024-03-06T06:23:53;10.95;;;5.55;;
65477;SDS011;53678;39.642;22.430;2024-03-06T06:26:19;9.98;;;6.07;;
65477;SDS011;53678;39.642;22.430;2024-03-06T06:28:45;17.88;;;7.25;;
65477;SDS011;53678;39.642;22.430;2024-03-06T06:31:11;25.67;;;7.25;;
65477;SDS011;53678;39.642;22.430;2024-03-06T06:33:37;15.10;;;6.63;;
65477;SDS011;53678;39.642;22.430;2024-03-06T06:36:03;11.77;;;5.82;;
65477;SDS011;53678;39.642;22.430;2024-03-06T06:38:29;18.23;;;7.72;;
65477;SDS011;53678;39.642;22.430;2024-03-06T06:40:55;10.45;;;5.47;;
65477;SDS011;53678;39.642;22.430;2024-03-06T06:43:21;29.02;;;7.40;;
65477;SDS011;53678;39.642;22.430;2024-03-06T06:45:47;22.27;;;7.88;;
65477;SDS011;53678;39.642;22.430;2024-03-06T06:48:12;13.65;;;7.15;;
65477;SDS011;53678;39.642;22.430;2024-03-06T06:50:42;20.83;;;9.32;;
65477;SDS011;53678;39.642;22.430;2024-03-06T06:53:07;18.40;;;8.00;;
65477;SDS011;53678;39.642;22.430;2024-03-06T06:55:33;44.15;;;10.65;;
65477;SDS011;53678;39.642;22.430;2024-03-06T06:57:59;14.50;;;7.88;;
65477;SDS011;53678;39.642;22.430;2024-03-06T07:04:12;15.68;;;7.80;;
65477;SDS011;53678;39.642;22.430;2024-03-06T07:06:37;11.82;;;7.25;;
65477;SDS011;53678;39.642;22.430;2024-03-06T07:09:04;12.75;;;8.10;;
65477;SDS011;53678;39.642;22.430;2024-03-06T07:11:30;16.73;;;7.60;;
65477;SDS011;53678;39.642;22.430;2024-03-06T07:13:56;15.23;;;7.50;;
65477;SDS011;53678;39.642;22.430;2024-03-06T07:16:22;10.55;;;7.28;;
65477;SDS011;53678;39.642;22.430;2024-03-06T07:18:47;11.88;;;7.28;;
65477;SDS011;53678;39.642;22.430;2024-03-06T07:21:13;13.82;;;8.27;;
65477;SDS011;53678;39.642;22.430;2024-03-06T07:23:39;14.75;;;8.15;;
65477;SDS011;53678;39.642;22.430;2024-03-06T07:26:05;14.02;;;7.75;;
65477;SDS011;53678;39.642;22.430;2024-03-06T07:28:31;15.10;;;8.50;;
65477;SDS011;53678;39.642;22.430;2024-03-06T07:30:56;13.02;;;7.55;;
65477;SDS011;53678;39.642;22.430;2024-03-06T07:33:23;16.73;;;7.78;;
65477;SDS011;53678;39.642;22.430;2024-03-06T07:35:49;13.00;;;6.30;;
65477;SDS011;53678;39.642;22.430;2024-03-06T07:38:15;9.13;;;5.63;;
65477;SDS011;53678;39.642;22.430;2024-03-06T07:40:41;17.25;;;7.10;;
65477;SDS011;53678;39.642;22.430;2024-03-06T07:43:06;12.50;;;6.55;;
65477;SDS011;53678;39.642;22.430;2024-03-06T07:45:34;12.45;;;7.32;;
65477;SDS011;53678;39.642;22.430;2024-03-06T07:48:00;13.40;;;7.00;;
65477;SDS011;53678;39.642;22.430;2024-03-06T07:50:25;34.30;;;10.85;;
65477;SDS011;53678;39.642;22.430;2024-03-06T07:52:52;38.70;;;10.27;;
65477;SDS011;53678;39.642;22.430;2024-03-06T07:55:21;16.25;;;7.63;;
65477;SDS011;53678;39.642;22.430;2024-03-06T07:57:47;18.95;;;8.55;;
65477;SDS011;53678;39.642;22.430;2024-03-06T08:00:14;25.08;;;8.98;;
65477;SDS011;53678;39.642;22.430;2024-03-06T08:02:41;20.45;;;8.98;;
65477;SDS011;53678;39.642;22.430;2024-03-06T08:05:12;22.35;;;7.93;;
65477;SDS011;53678;39.642;22.430;2024-03-06T08:07:40;25.85;;;10.20;;
65477;SDS011;53678;39.642;22.430;2024-03-06T08:10:10;22.77;;;8.45;;
65477;SDS011;53678;39.642;22.430;2024-03-06T08:12:58;17.88;;;7.30;;
65477;SDS011;53678;39.642;22.430;2024-03-06T08:15:24;14.45;;;8.43;;
65477;SDS011;53678;39.642;22.430;2024-03-06T08:17:49;26.17;;;8.25;;
65477;SDS011;53678;39.642;22.430;2024-03-06T08:20:17;13.07;;;8.27;;
65477;SDS011;53678;39.642;22.430;2024-03-06T08:25:28;20.40;;;7.90;;
65477;SDS011;53678;39.642;22.430;2024-03-06T08:27:54;13.13;;;8.05;;
65477;SDS011;53678;39.642;22.430;2024-03-06T08:30:19;20.10;;;7.63;;
65477;SDS011;53678;39.642;22.430;2024-03-06T08:32:45;12.02;;;7.00;;
65477;SDS011;53678;39.642;22.430;2024-03-06T08:35:11;18.02;;;7.95;;
65477;SDS011;53678;39.642;22.430;2024-03-06T08:37:38;10.35;;;6.50;;
65477;SDS011;53678;39.642;22.430;2024-03-06T08:40:08;12.50;;;5.43;;
65477;SDS011;53678;39.642;22.430;2024-03-06T08:42:41;13.73;;;6.47;;
65477;SDS011;53678;39.642;22.430;2024-03-06T08:45:07;10.55;;;5.35;;
65477;SDS011;53678;39.642;22.430;2024-03-06T08:47:34;9.20;;;5.22;;
65477;SDS011;53678;39.642;22.430;2024-03-06T08:50:02;9.65;;;5.25;;
65477;SDS011;53678;39.642;22.430;2024-03-06T08:52:29;10.70;;;7.43;;
65477;SDS011;53678;39.642;22.430;2024-03-06T08:54:56;10.57;;;6.00;;
65477;SDS011;53678;39.642;22.430;2024-03-06T08:57:22;12.20;;;6.30;;
65477;SDS011;53678;39.642;22.430;2024-03-06T08:59:49;8.38;;;5.65;;
65477;SDS011;53678;39.642;22.430;2024-03-06T09:02:18;8.60;;;5.53;;
65477;SDS011;53678;39.642;22.430;2024-03-06T09:04:46;10.23;;;5.38;;
65477;SDS011;53678;39.642;22.430;2024-03-06T09:07:12;12.40;;;6.45;;
65477;SDS011;53678;39.642;22.430;2024-03-06T09:09:39;9.73;;;6.53;;
65477;SDS011;53678;39.642;22.430;2024-03-06T09:12:06;8.98;;;5.97;;
65477;SDS011;53678;39.642;22.430;2024-03-06T09:14:36;10.45;;;6.90;;
65477;SDS011;53678;39.642;22.430;2024-03-06T09:17:03;16.27;;;7.45;;
65477;SDS011;53678;39.642;22.430;2024-03-06T09:19:30;15.25;;;6.93;;
65477;SDS011;53678;39.642;22.430;2024-03-06T09:21:58;8.05;;;5.38;;
65477;SDS011;53678;39.642;22.430;2024-03-06T09:24:24;12.68;;;7.75;;
65477;SDS011;53678;39.642;22.430;2024-03-06T09:26:50;11.05;;;6.50;;
65477;SDS011;53678;39.642;22.430;2024-03-06T09:29:19;10.73;;;6.07;;
65477;SDS011;53678;39.642;22.430;2024-03-06T09:31:46;10.15;;;6.40;;
65477;SDS011;53678;39.642;22.430;2024-03-06T09:34:13;18.52;;;7.13;;
65477;SDS011;53678;39.642;22.430;2024-03-06T09:36:40;11.48;;;6.45;;
65477;SDS011;53678;39.642;22.430;2024-03-06T09:39:13;13.55;;;7.57;;
65477;SDS011;53678;39.642;22.430;2024-03-06T09:41:50;13.45;;;6.43;;
65477;SDS011;53678;39.642;22.430;2024-03-06T09:44:17;11.70;;;6.22;;
65477;SDS011;53678;39.642;22.430;2024-03-06T09:46:45;11.55;;;6.35;;
65477;SDS011;53678;39.642;22.430;2024-03-06T09:49:15;6.00;;;3.50;;
65477;SDS011;53678;39.642;22.430;2024-03-06T09:51:48;7.38;;;3.63;;
65477;SDS011;53678;39.642;22.430;2024-03-06T09:54:19;6.82;;;3.53;;
65477;SDS011;53678;39.642;22.430;2024-03-06T09:56:45;5.35;;;3.60;;
65477;SDS011;53678;39.642;22.430;2024-03-06T09:59:13;6.13;;;3.45;;
65477;SDS011;53678;39.642;22.430;2024-03-06T10:01:48;6.93;;;3.40;;
65477;SDS011;53678;39.642;22.430;2024-03-06T10:04:20;7.55;;;3.10;;
65477;SDS011;53678;39.642;22.430;2024-03-06T10:06:54;7.82;;;3.40;;
65477;SDS011;53678;39.642;22.430;2024-03-06T10:09:20;10.30;;;3.67;;
65477;SDS011;53678;39.642;22.430;2024-03-06T10:11:46;8.35;;;3.10;;
65477;SDS011;53678;39.642;22.430;2024-03-06T10:14:15;5.43;;;3.30;;
65477;SDS011;53678;39.642;22.430;2024-03-06T10:16:57;6.18;;;3.22;;
65477;SDS011;53678;39.642;22.430;2024-03-06T10:19:27;5.63;;;3.35;;
65477;SDS011;53678;39.642;22.430;2024-03-06T10:21:55;9.30;;;3.75;;
65477;SDS011;53678;39.642;22.430;2024-03-06T10:24:22;9.02;;;3.72;;
65477;SDS011;53678;39.642;22.430;2024-03-06T10:26:54;5.47;;;2.90;;
65477;SDS011;53678;39.642;22.430;2024-03-06T10:29:22;7.70;;;3.50;;
65477;SDS011;53678;39.642;22.430;2024-03-06T10:34:27;5.33;;;2.97;;
65477;SDS011;53678;39.642;22.430;2024-03-06T10:36:55;5.03;;;3.35;;
65477;SDS011;53678;39.642;22.430;2024-03-06T10:39:21;5.45;;;3.10;;
65477;SDS011;53678;39.642;22.430;2024-03-06T10:41:54;4.47;;;3.00;;
65477;SDS011;53678;39.642;22.430;2024-03-06T10:44:25;12.32;;;4.38;;
65477;SDS011;53678;39.642;22.430;2024-03-06T10:46:56;4.63;;;3.22;;
65477;SDS011;53678;39.642;22.430;2024-03-06T10:49:25;6.45;;;3.85;;
65477;SDS011;53678;39.642;22.430;2024-03-06T10:51:54;13.63;;;3.97;;
65477;SDS011;53678;39.642;22.430;2024-03-06T10:54:26;6.50;;;3.30;;
65477;SDS011;53678;39.642;22.430;2024-03-06T10:56:52;5.95;;;3.40;;
65477;SDS011;53678;39.642;22.430;2024-03-06T10:59:19;5.47;;;3.03;;
65477;SDS011;53678;39.642;22.430;2024-03-06T11:01:46;4.70;;;2.92;;
65477;SDS011;53678;39.642;22.430;2024-03-06T11:04:13;8.68;;;3.80;;
65477;SDS011;53678;39.642;22.430;2024-03-06T11:06:40;6.43;;;3.40;;
65477;SDS011;53678;39.642;22.430;2024-03-06T11:09:06;11.45;;;3.50;;
65477;SDS011;53678;39.642;22.430;2024-03-06T11:11:47;8.02;;;3.50;;
65477;SDS011;53678;39.642;22.430;2024-03-06T11:14:23;5.90;;;3.67;;
65477;SDS011;53678;39.642;22.430;2024-03-06T11:16:56;6.93;;;3.60;;
65477;SDS011;53678;39.642;22.430;2024-03-06T11:20:18;12.55;;;4.15;;
65477;SDS011;53678;39.642;22.430;2024-03-06T11:28:22;14.88;;;4.88;;
65477;SDS011;53678;39.642;22.430;2024-03-06T11:30:55;5.00;;;3.13;;
65477;SDS011;53678;39.642;22.430;2024-03-06T11:33:34;6.93;;;3.58;;
65477;SDS011;53678;39.642;22.430;2024-03-06T11:36:17;6.75;;;3.28;;
65477;SDS011;53678;39.642;22.430;2024-03-06T11:38:52;5.65;;;3.53;;
65477;SDS011;53678;39.642;22.430;2024-03-06T11:41:29;7.63;;;3.70;;
65477;SDS011;53678;39.642;22.430;2024-03-06T11:44:01;10.13;;;4.70;;
65477;SDS011;53678;39.642;22.430;2024-03-06T11:49:28;7.13;;;3.10;;
65477;SDS011;53678;39.642;22.430;2024-03-06T11:52:00;4.97;;;3.30;;
65477;SDS011;53678;39.642;22.430;2024-03-06T11:54:28;10.88;;;3.78;;
65477;SDS011;53678;39.642;22.430;2024-03-06T11:56:56;4.13;;;2.70;;
65477;SDS011;53678;39.642;22.430;2024-03-06T12:01:50;5.00;;;2.92;;
65477;SDS011;53678;39.642;22.430;2024-03-06T12:04:19;4.43;;;3.45;;
65477;SDS011;53678;39.642;22.430;2024-03-06T12:06:49;5.57;;;3.28;;
65477;SDS011;53678;39.642;22.430;2024-03-06T12:09:15;6.32;;;3.33;;
65477;SDS011;53678;39.642;22.430;2024-03-06T12:11:42;5.50;;;3.05;;
65477;SDS011;53678;39.642;22.430;2024-03-06T12:14:14;6.13;;;3.70;;
65477;SDS011;53678;39.642;22.430;2024-03-06T12:16:58;5.22;;;3.42;;
65477;SDS011;53678;39.642;22.430;2024-03-06T12:19:26;12.80;;;6.35;;
65477;SDS011;53678;39.642;22.430;2024-03-06T12:21:53;9.95;;;4.50;;
65477;SDS011;53678;39.642;22.430;2024-03-06T12:24:20;6.53;;;4.05;;
65477;SDS011;53678;39.642;22.430;2024-03-06T12:26:57;6.53;;;4.20;;
65477;SDS011;53678;39.642;22.430;2024-03-06T12:29:27;6.22;;;3.55;;
65477;SDS011;53678;39.642;22.430;2024-03-06T12:31:55;6.15;;;3.92;;
65477;SDS011;53678;39.642;22.430;2024-03-06T12:34:23;6.18;;;3.83;;
65477;SDS011;53678;39.642;22.430;2024-03-06T12:36:49;10.02;;;4.15;;
65477;SDS011;53678;39.642;22.430;2024-03-06T12:39:15;8.75;;;4.15;;
65477;SDS011;53678;39.642;22.430;2024-03-06T12:41:47;7.93;;;4.60;;
65477;SDS011;53678;39.642;22.430;2024-03-06T12:44:13;7.32;;;3.80;;
65477;SDS011;53678;39.642;22.430;2024-03-06T12:46:40;5.22;;;3.83;;
65477;SDS011;53678;39.642;22.430;2024-03-06T12:49:06;7.47;;;3.83;;
65477;SDS011;53678;39.642;22.430;2024-03-06T12:51:32;5.30;;;3.63;;
65477;SDS011;53678;39.642;22.430;2024-03-06T12:53:59;5.95;;;3.88;;
65477;SDS011;53678;39.642;22.430;2024-03-06T12:56:26;6.78;;;4.15;;
65477;SDS011;53678;39.642;22.430;2024-03-06T12:58:52;7.18;;;3.80;;
65477;SDS011;53678;39.642;22.430;2024-03-06T13:01:18;5.97;;;4.03;;
65477;SDS011;53678;39.642;22.430;2024-03-06T13:03:47;10.38;;;4.32;;
65477;SDS011;53678;39.642;22.430;2024-03-06T13:06:14;7.25;;;4.43;;
65477;SDS011;53678;39.642;22.430;2024-03-06T13:08:43;10.77;;;3.88;;
65477;SDS011;53678;39.642;22.430;2024-03-06T13:11:09;5.68;;;3.95;;
65477;SDS011;53678;39.642;22.430;2024-03-06T13:13:35;7.13;;;3.75;;
65477;SDS011;53678;39.642;22.430;2024-03-06T13:16:01;5.60;;;4.05;;
65477;SDS011;53678;39.642;22.430;2024-03-06T13:18:27;4.65;;;3.72;;
65477;SDS011;53678;39.642;22.430;2024-03-06T13:20:53;6.00;;;3.60;;
65477;SDS011;53678;39.642;22.430;2024-03-06T13:23:19;9.93;;;4.47;;
65477;SDS011;53678;39.642;22.430;2024-03-06T13:25:45;7.47;;;4.30;;
65477;SDS011;53678;39.642;22.430;2024-03-06T13:28:11;7.32;;;4.32;;
65477;SDS011;53678;39.642;22.430;2024-03-06T13:30:38;15.77;;;4.28;;
65477;SDS011;53678;39.642;22.430;2024-03-06T13:33:04;6.78;;;4.00;;
65477;SDS011;53678;39.642;22.430;2024-03-06T13:35:32;7.50;;;4.80;;
65477;SDS011;53678;39.642;22.430;2024-03-06T13:37:59;8.25;;;3.67;;
65477;SDS011;53678;39.642;22.430;2024-03-06T13:40:25;5.40;;;3.88;;
65477;SDS011;53678;39.642;22.430;2024-03-06T13:42:53;7.80;;;4.00;;
65477;SDS011;53678;39.642;22.430;2024-03-06T13:45:19;6.68;;;3.92;;
65477;SDS011;53678;39.642;22.430;2024-03-06T13:47:45;7.05;;;4.10;;
65477;SDS011;53678;39.642;22.430;2024-03-06T13:50:11;8.13;;;3.97;;
65477;SDS011;53678;39.642;22.430;2024-03-06T13:52:39;5.93;;;4.00;;
65477;SDS011;53678;39.642;22.430;2024-03-06T13:55:06;6.32;;;3.70;;
65477;SDS011;53678;39.642;22.430;2024-03-06T13:57:37;5.68;;;3.80;;
65477;SDS011;53678;39.642;22.430;2024-03-06T14:00:04;5.90;;;3.50;;
65477;SDS011;53678;39.642;22.430;2024-03-06T14:02:43;6.30;;;4.20;;
65477;SDS011;53678;39.642;22.430;2024-03-06T14:05:12;4.78;;;3.40;;
65477;SDS011;53678;39.642;22.430;2024-03-06T14:07:39;9.63;;;4.00;;
65477;SDS011;53678;39.642;22.430;2024-03-06T14:10:06;10.10;;;4.18;;
65477;SDS011;53678;39.642;22.430;2024-03-06T14:12:35;6.95;;;4.07;;
65477;SDS011;53678;39.642;22.430;2024-03-06T14:15:03;6.15;;;3.70;;
65477;SDS011;53678;39.642;22.430;2024-03-06T14:17:30;5.32;;;3.65;;
65477;SDS011;53678;39.642;22.430;2024-03-06T14:19:57;9.68;;;3.97;;
65477;SDS011;53678;39.642;22.430;2024-03-06T14:22:22;8.15;;;4.20;;
65477;SDS011;53678;39.642;22.430;2024-03-06T14:24:48;7.05;;;4.00;;
65477;SDS011;53678;39.642;22.430;2024-03-06T14:27:14;5.55;;;3.70;;
65477;SDS011;53678;39.642;22.430;2024-03-06T14:29:40;5.72;;;4.25;;
65477;SDS011;53678;39.642;22.430;2024-03-06T14:32:06;6.10;;;3.65;;
65477;SDS011;53678;39.642;22.430;2024-03-06T14:34:32;6.38;;;3.95;;
65477;SDS011;53678;39.642;22.430;2024-03-06T14:36:58;14.30;;;4.40;;
65477;SDS011;53678;39.642;22.430;2024-03-06T14:39:23;9.02;;;4.18;;
65477;SDS011;53678;39.642;22.430;2024-03-06T14:41:51;6.22;;;3.95;;
65477;SDS011;53678;39.642;22.430;2024-03-06T14:44:17;8.25;;;4.50;;
65477;SDS011;53678;39.642;22.430;2024-03-06T14:46:43;6.82;;;4.60;;